createdAt,value
2022-08-09T00:02:31.947Z,6.30
2022-08-09T00:05:03.175Z,6.18
2022-08-09T00:07:46.811Z,6.35
2022-08-09T00:10:20.998Z,5.77
2022-08-09T00:12:52.450Z,6.53
2022-08-09T00:15:26.179Z,6.75
2022-08-09T00:18:10.307Z,6.38
2022-08-09T00:20:42.254Z,6.13
2022-08-09T00:23:56.395Z,6.57
2022-08-09T00:26:06.092Z,5.72
2022-08-09T00:28:34.629Z,6.18
2022-08-09T00:31:50.670Z,5.85
2022-08-09T00:33:52.162Z,5.95
2022-08-09T00:36:19.942Z,6.07
2022-08-09T00:38:46.812Z,6.20
2022-08-09T00:44:17.020Z,5.85
2022-08-09T00:44:20.358Z,6.25
2022-08-09T00:46:57.601Z,5.85
2022-08-09T00:49:28.857Z,5.73
2022-08-09T00:52:05.342Z,6.45
2022-08-09T00:54:36.655Z,6.20
2022-08-09T00:57:10.122Z,6.45
2022-08-09T00:59:41.649Z,6.25
2022-08-09T01:02:22.125Z,6.07
2022-08-09T01:05:14.329Z,5.85
2022-08-09T01:08:00.920Z,6.25
2022-08-09T01:10:31.693Z,6.20
2022-08-09T01:13:22.381Z,6.40
2022-08-09T01:15:52.060Z,6.10
2022-08-09T01:18:29.860Z,5.60
2022-08-09T01:21:19.132Z,6.80
2022-08-09T01:24:13.380Z,6.15
2022-08-09T01:26:57.735Z,6.97
2022-08-09T01:29:55.942Z,6.67
2022-08-09T01:32:37.771Z,6.57
2022-08-09T01:35:28.257Z,6.50
2022-08-09T01:38:10.095Z,6.65
2022-08-09T01:40:44.297Z,6.60
2022-08-09T01:43:11.771Z,6.80
2022-08-09T01:45:46.007Z,6.82
2022-08-09T01:48:16.834Z,6.72
2022-08-09T01:50:55.021Z,6.70
2022-08-09T01:53:29.223Z,6.80
2022-08-09T01:56:10.083Z,6.60
2022-08-09T01:58:37.010Z,7.03
2022-08-09T02:01:04.833Z,7.07
2022-08-09T02:03:34.912Z,6.38
2022-08-09T02:06:06.349Z,6.38
2022-08-09T02:08:57.228Z,6.00
2022-08-09T02:11:23.672Z,6.60
2022-08-09T02:14:06.269Z,6.60
2022-08-09T02:16:59.667Z,6.18
2022-08-09T02:19:22.772Z,7.03
2022-08-09T02:21:55.254Z,6.77
2022-08-09T02:24:26.247Z,7.00
2022-08-09T02:26:55.358Z,7.25
2022-08-09T02:29:27.394Z,7.07
2022-08-09T02:31:58.332Z,5.82
2022-08-09T02:34:40.465Z,6.57
2022-08-09T02:37:12.205Z,7.05
2022-08-09T02:39:45.029Z,6.85
2022-08-09T02:42:28.078Z,6.82
2022-08-09T02:45:07.522Z,6.70
2022-08-09T02:47:57.755Z,6.57
2022-08-09T02:50:25.293Z,6.60
2022-08-09T02:53:26.244Z,7.28
2022-08-09T02:55:58.265Z,6.80
2022-08-09T02:58:32.711Z,6.72
2022-08-09T03:01:06.106Z,7.00
2022-08-09T03:03:37.169Z,6.90
2022-08-09T03:06:21.552Z,7.07
2022-08-09T03:08:49.780Z,6.53
2022-08-09T03:12:04.683Z,7.60
2022-08-09T03:14:07.093Z,7.63
2022-08-09T03:16:37.374Z,6.50
2022-08-09T03:19:16.731Z,7.00
2022-08-09T03:21:55.891Z,6.93
2022-08-09T03:24:31.647Z,7.35
2022-08-09T03:27:09.654Z,7.40
2022-08-09T03:29:56.915Z,6.82
2022-08-09T03:32:24.627Z,7.28
2022-08-09T03:34:54.110Z,7.07
2022-08-09T03:37:55.731Z,7.47
2022-08-09T03:40:13.084Z,7.20
2022-08-09T03:42:42.984Z,7.45
2022-08-09T03:45:11.871Z,7.40
2022-08-09T03:47:40.018Z,7.28
2022-08-09T03:50:10.886Z,7.60
2022-08-09T03:52:38.712Z,7.07
2022-08-09T03:55:07.668Z,7.70
2022-08-09T03:57:44.495Z,6.60
2022-08-09T04:00:21.313Z,7.57
2022-08-09T04:02:52.656Z,7.13
2022-08-09T04:05:27.320Z,7.10
2022-08-09T04:07:57.134Z,7.28
2022-08-09T04:10:29.315Z,7.13
2022-08-09T04:12:57.894Z,7.38
2022-08-09T04:15:40.508Z,6.80
2022-08-09T04:18:17.771Z,6.77
2022-08-09T04:20:50.284Z,6.60
2022-08-09T04:23:24.661Z,7.13
2022-08-09T04:25:53.402Z,7.05
2022-08-09T04:28:30.763Z,7.22
2022-08-09T04:31:07.824Z,6.70
2022-08-09T04:33:52.527Z,7.40
2022-08-09T04:36:24.525Z,7.28
2022-08-09T04:38:52.453Z,6.72
2022-08-09T04:41:19.591Z,6.80
2022-08-09T04:44:05.291Z,7.07
2022-08-09T04:46:37.933Z,6.68
2022-08-09T04:49:22.291Z,6.30
2022-08-09T04:52:09.673Z,6.15
2022-08-09T04:54:36.798Z,6.25
2022-08-09T04:57:04.127Z,6.77
2022-08-09T04:59:31.558Z,6.53
2022-08-09T05:01:58.498Z,6.30
2022-08-09T05:04:31.161Z,6.63
2022-08-09T05:06:58.760Z,6.93
2022-08-09T05:09:41.921Z,5.87
2022-08-09T05:15:01.132Z,5.72
2022-08-09T05:18:37.691Z,5.30
2022-08-09T05:20:17.494Z,6.05
2022-08-09T05:23:53.523Z,5.20
2022-08-09T05:25:32.574Z,6.53
2022-08-09T05:27:59.673Z,5.45
2022-08-09T05:30:31.178Z,5.47
2022-08-09T05:32:58.462Z,5.90
2022-08-09T05:35:25.938Z,5.37
2022-08-09T05:37:57.132Z,5.15
2022-08-09T05:40:27.075Z,5.28
2022-08-09T05:42:54.091Z,5.38
2022-08-09T05:45:21.173Z,5.70
2022-08-09T05:47:54.269Z,5.27
2022-08-09T05:50:50.461Z,6.30
2022-08-09T05:53:21.657Z,5.22
2022-08-09T05:55:58.972Z,5.22
2022-08-09T05:58:25.839Z,5.80
2022-08-09T06:00:53.937Z,5.27
2022-08-09T06:03:20.864Z,4.57
2022-08-09T06:05:50.637Z,5.50
2022-08-09T06:08:25.293Z,4.93
2022-08-09T06:10:55.752Z,5.15
2022-08-09T06:13:22.852Z,5.47
2022-08-09T06:15:50.980Z,4.95
2022-08-09T06:18:25.285Z,4.40
2022-08-09T06:20:57.850Z,3.17
2022-08-09T06:23:55.716Z,3.45
2022-08-09T06:26:20.606Z,3.03
2022-08-09T06:29:01.123Z,3.38
2022-08-09T06:31:39.893Z,3.03
2022-08-09T06:34:20.252Z,3.38
2022-08-09T06:36:50.052Z,3.10
2022-08-09T06:39:59.776Z,3.00
2022-08-09T06:42:30.807Z,2.65
2022-08-09T06:45:52.094Z,2.97
2022-08-09T06:47:48.660Z,2.63
2022-08-09T06:50:24.991Z,2.67
2022-08-09T06:52:52.679Z,2.40
2022-08-09T06:55:23.362Z,3.10
2022-08-09T06:58:02.775Z,3.25
2022-08-09T07:00:49.824Z,2.50
2022-08-09T07:03:18.759Z,2.70
2022-08-09T07:06:02.473Z,2.60
2022-08-09T07:08:31.281Z,2.47
2022-08-09T07:10:58.194Z,3.38
2022-08-09T07:13:28.002Z,2.95
2022-08-09T07:16:41.667Z,2.53
2022-08-09T07:18:47.490Z,2.63
2022-08-09T07:21:17.182Z,2.90
2022-08-09T07:23:46.767Z,2.63
2022-08-09T07:26:24.834Z,2.85
2022-08-09T07:29:08.503Z,3.13
2022-08-09T07:31:44.874Z,2.77
2022-08-09T07:34:20.195Z,2.30
2022-08-09T07:36:49.185Z,2.90
2022-08-09T07:39:20.539Z,2.78
2022-08-09T07:42:03.374Z,3.40
2022-08-09T07:44:32.983Z,2.73
2022-08-09T07:47:19.764Z,2.55
2022-08-09T07:50:04.263Z,3.15
2022-08-09T07:52:34.808Z,2.60
2022-08-09T07:55:08.987Z,2.70
2022-08-09T07:57:37.090Z,2.90
2022-08-09T08:00:13.871Z,2.53
2022-08-09T08:02:48.112Z,2.90
2022-08-09T08:05:18.794Z,2.40
2022-08-09T08:08:43.694Z,2.67
2022-08-09T08:10:34.227Z,2.50
2022-08-09T08:13:03.877Z,2.65
2022-08-09T08:15:37.686Z,2.80
2022-08-09T08:18:07.098Z,2.53
2022-08-09T08:20:34.578Z,2.65
2022-08-09T08:23:17.087Z,2.87
2022-08-09T08:26:06.245Z,2.90
2022-08-09T08:28:35.049Z,3.08
2022-08-09T08:31:10.403Z,2.45
2022-08-09T08:33:52.653Z,3.00
2022-08-09T08:36:29.753Z,2.67
2022-08-09T08:38:58.674Z,3.00
2022-08-09T08:41:41.835Z,3.00
2022-08-09T08:44:14.499Z,2.70
2022-08-09T08:47:02.730Z,2.13
2022-08-09T08:49:46.371Z,2.80
2022-08-09T08:52:58.473Z,2.60
2022-08-09T08:55:10.040Z,2.47
2022-08-09T08:57:37.254Z,2.55
2022-08-09T09:00:12.683Z,2.28
2022-08-09T09:02:44.619Z,2.20
2022-08-09T09:05:22.712Z,2.42
2022-08-09T09:08:00.216Z,2.50
2022-08-09T09:10:27.046Z,2.13
2022-08-09T09:12:53.931Z,2.20
2022-08-09T09:15:28.344Z,2.20
2022-08-09T09:17:55.756Z,2.85
2022-08-09T09:20:22.547Z,2.53
2022-08-09T09:22:57.317Z,2.42
2022-08-09T09:26:03.355Z,2.38
2022-08-09T09:29:02.803Z,2.60
2022-08-09T09:32:06.598Z,2.55
2022-08-09T09:34:18.000Z,2.85
2022-08-09T09:36:50.978Z,2.80
2022-08-09T09:39:23.059Z,2.35
2022-08-09T09:41:50.922Z,2.77
2022-08-09T09:44:27.815Z,2.47
2022-08-09T09:47:06.538Z,2.80
2022-08-09T09:50:13.687Z,2.20
2022-08-09T09:52:36.730Z,2.33
2022-08-09T09:55:16.494Z,2.60
2022-08-09T09:58:01.387Z,2.60
2022-08-09T10:00:31.814Z,3.08
2022-08-09T10:03:11.397Z,2.30
2022-08-09T10:06:03.279Z,2.83
2022-08-09T10:08:32.019Z,2.40
2022-08-09T10:10:58.937Z,2.70
2022-08-09T10:13:45.212Z,2.40
2022-08-09T10:16:57.632Z,2.40
2022-08-09T10:19:05.217Z,2.75
2022-08-09T10:21:33.346Z,2.40
2022-08-09T10:24:03.928Z,2.00
2022-08-09T10:26:31.185Z,2.88
2022-08-09T10:29:35.961Z,2.50
2022-08-09T10:32:35.689Z,2.35
2022-08-09T10:34:33.034Z,2.60
2022-08-09T10:37:01.086Z,2.20
2022-08-09T10:39:28.687Z,2.58
2022-08-09T10:41:55.853Z,2.35
2022-08-09T10:44:24.765Z,2.17
2022-08-09T10:47:20.494Z,2.37
2022-08-09T10:50:31.395Z,2.13
2022-08-09T10:53:12.315Z,2.65
2022-08-09T10:55:57.768Z,2.30
2022-08-09T10:58:33.723Z,2.58
2022-08-09T11:03:06.571Z,2.00
2022-08-09T11:04:19.873Z,2.53
2022-08-09T11:07:03.513Z,2.72
2022-08-09T11:09:47.406Z,3.08
2022-08-09T11:12:18.720Z,2.50
2022-08-09T11:15:01.797Z,2.80
2022-08-09T11:17:32.486Z,2.63
2022-08-09T11:20:20.272Z,2.88
2022-08-09T11:22:56.923Z,2.40
2022-08-09T11:25:47.530Z,3.05
2022-08-09T11:28:56.598Z,2.50
2022-08-09T11:31:52.915Z,2.42
2022-08-09T11:34:44.767Z,3.22
2022-08-09T11:37:26.069Z,3.15
2022-08-09T11:40:08.615Z,2.63
2022-08-09T11:42:43.410Z,2.23
2022-08-09T11:45:26.261Z,2.30
2022-08-09T11:48:30.419Z,2.63
2022-08-09T11:52:48.669Z,1.80
2022-08-09T11:53:59.966Z,2.15
2022-08-09T11:56:42.760Z,2.10
2022-08-09T11:59:30.379Z,2.63
2022-08-09T12:02:16.290Z,2.17
2022-08-09T12:04:45.559Z,1.90
2022-08-09T12:07:14.305Z,2.42
2022-08-09T12:09:50.379Z,2.20
2022-08-09T12:12:20.265Z,2.75
2022-08-09T12:15:07.934Z,3.30
2022-08-09T12:17:44.828Z,3.08
2022-08-09T12:20:34.570Z,3.17
2022-08-09T12:23:02.295Z,3.10
2022-08-09T12:25:36.307Z,2.42
2022-08-09T12:29:15.617Z,2.50
2022-08-09T12:30:59.156Z,3.70
2022-08-09T12:33:35.350Z,3.13
2022-08-09T12:36:27.494Z,3.90
2022-08-09T12:38:58.397Z,2.50
2022-08-09T12:41:39.729Z,2.40
2022-08-09T12:44:10.217Z,1.85
2022-08-09T12:46:48.965Z,1.90
2022-08-09T12:49:17.056Z,3.90
2022-08-09T12:52:00.992Z,2.75
2022-08-09T12:54:31.118Z,3.55
2022-08-09T12:56:58.992Z,2.38
2022-08-09T12:59:57.405Z,2.85
2022-08-09T13:02:15.164Z,2.97
2022-08-09T13:04:42.098Z,3.03
2022-08-09T13:07:19.609Z,7.72
2022-08-09T13:10:04.915Z,2.63
2022-08-09T13:12:32.352Z,2.88
2022-08-09T13:15:09.896Z,2.33
2022-08-09T13:17:58.649Z,2.67
2022-08-09T13:20:37.884Z,2.05
2022-08-09T13:24:16.559Z,2.60
2022-08-09T13:26:36.485Z,2.03
2022-08-09T13:29:15.916Z,2.50
2022-08-09T13:32:15.270Z,2.17
2022-08-09T13:34:46.775Z,4.32
2022-08-09T13:37:24.486Z,3.28
2022-08-09T13:41:52.158Z,2.53
2022-08-09T13:42:50.093Z,2.40
2022-08-09T13:45:17.225Z,2.58
2022-08-09T13:47:51.855Z,3.25
2022-08-09T13:50:31.143Z,2.47
2022-08-09T13:52:58.703Z,2.70
2022-08-09T13:55:29.162Z,2.60
2022-08-09T13:57:59.631Z,2.38
2022-08-09T14:00:28.413Z,2.45
2022-08-09T14:03:02.889Z,2.45
2022-08-09T14:06:01.460Z,2.70
2022-08-09T14:08:30.727Z,2.67
2022-08-09T14:10:59.512Z,2.65
2022-08-09T14:14:15.918Z,2.72
2022-08-09T14:16:16.253Z,2.17
2022-08-09T14:18:45.884Z,2.72
2022-08-09T14:21:22.541Z,2.53
2022-08-09T14:23:55.372Z,2.53
2022-08-09T14:26:32.584Z,2.50
2022-08-09T14:29:08.302Z,2.42
2022-08-09T14:31:53.733Z,2.75
2022-08-09T14:34:31.165Z,2.43
2022-08-09T14:37:01.712Z,2.13
2022-08-09T14:39:40.044Z,2.65
2022-08-09T14:42:13.380Z,2.70
2022-08-09T14:44:59.430Z,2.42
2022-08-09T14:47:45.426Z,2.10
2022-08-09T14:50:16.304Z,2.30
2022-08-09T14:52:47.950Z,2.70
2022-08-09T14:55:20.418Z,2.30
2022-08-09T14:57:48.912Z,2.55
2022-08-09T15:00:16.519Z,2.73
2022-08-09T15:02:47.529Z,2.33
2022-08-09T15:05:18.546Z,2.55
2022-08-09T15:07:56.633Z,2.60
2022-08-09T15:10:26.415Z,2.40
2022-08-09T15:12:54.325Z,2.40
2022-08-09T15:15:21.606Z,2.50
2022-08-09T15:17:52.474Z,2.80
2022-08-09T15:21:56.275Z,2.40
2022-08-09T15:24:01.905Z,2.60
2022-08-09T15:25:54.226Z,2.20
2022-08-09T15:28:27.716Z,2.33
2022-08-09T15:31:07.269Z,2.55
2022-08-09T15:34:18.390Z,2.17
2022-08-09T15:36:29.243Z,2.28
2022-08-09T15:39:00.123Z,2.30
2022-08-09T15:41:31.469Z,2.67
2022-08-09T15:44:02.624Z,2.85
2022-08-09T15:46:33.845Z,2.35
2022-08-09T15:49:21.686Z,2.67
2022-08-09T15:52:03.876Z,3.03
2022-08-09T15:54:46.163Z,2.47
2022-08-09T15:57:19.024Z,2.88
2022-08-09T16:00:11.035Z,2.58
2022-08-09T16:02:53.352Z,2.90
2022-08-09T16:05:20.925Z,2.90
2022-08-09T16:07:49.247Z,3.00
2022-08-09T16:10:55.912Z,3.45
2022-08-09T16:13:04.191Z,2.85
2022-08-09T16:16:10.910Z,3.20
2022-08-09T16:18:32.436Z,2.70
2022-08-09T16:20:59.579Z,2.70
2022-08-09T16:23:27.318Z,3.17
2022-08-09T16:26:00.995Z,2.88
2022-08-09T16:28:29.746Z,3.35
2022-08-09T16:30:58.487Z,3.07
2022-08-09T16:33:26.729Z,3.03
2022-08-09T16:35:58.471Z,3.63
2022-08-09T16:38:29.539Z,3.80
2022-08-09T16:40:56.904Z,2.95
2022-08-09T16:43:24.746Z,2.90
2022-08-09T16:45:54.126Z,3.00
2022-08-09T16:48:39.219Z,3.50
2022-08-09T16:51:13.799Z,3.70
2022-08-09T16:54:25.135Z,3.58
2022-08-09T16:56:31.927Z,3.53
2022-08-09T16:59:01.060Z,3.35
2022-08-09T17:01:29.220Z,3.90
2022-08-09T17:04:01.125Z,3.10
2022-08-09T17:06:33.265Z,3.17
2022-08-09T17:09:16.212Z,3.33
2022-08-09T17:11:48.048Z,3.28
2022-08-09T17:14:28.102Z,3.30
2022-08-09T17:17:00.979Z,3.22
2022-08-09T17:20:04.986Z,3.85
2022-08-09T17:22:25.169Z,3.47
2022-08-09T17:25:03.523Z,3.25
2022-08-09T17:27:38.285Z,3.22
2022-08-09T17:30:07.124Z,3.65
2022-08-09T17:32:40.020Z,3.38
2022-08-09T17:35:13.210Z,3.20
2022-08-09T17:38:11.405Z,3.70
2022-08-09T17:40:33.994Z,3.65
2022-08-09T17:43:33.191Z,3.33
2022-08-09T17:46:03.463Z,3.67
2022-08-09T17:48:34.817Z,3.80
2022-08-09T17:51:10.288Z,3.80
2022-08-09T17:53:51.883Z,3.67
2022-08-09T17:56:35.409Z,4.30
2022-08-09T17:59:09.270Z,3.97
2022-08-09T18:02:03.900Z,3.80
2022-08-09T18:04:26.168Z,4.18
2022-08-09T18:06:55.100Z,4.55
2022-08-09T18:09:39.965Z,4.28
2022-08-09T18:12:20.362Z,4.30
2022-08-09T18:14:55.227Z,4.13
2022-08-09T18:17:26.828Z,3.80
2022-08-09T18:20:57.267Z,4.10
2022-08-09T18:22:55.756Z,3.92
2022-08-09T18:25:50.016Z,4.28
2022-08-09T18:28:21.713Z,3.97
2022-08-09T18:30:58.318Z,4.30
2022-08-09T18:33:25.356Z,4.20
2022-08-09T18:36:00.104Z,4.00
2022-08-09T18:38:27.400Z,4.38
2022-08-09T18:40:55.545Z,4.13
2022-08-09T18:43:23.249Z,4.65
2022-08-09T18:46:46.857Z,4.72
2022-08-09T18:48:37.106Z,4.85
2022-08-09T18:51:04.105Z,5.25
2022-08-09T18:53:56.980Z,5.30
2022-08-09T18:56:27.864Z,5.35
2022-08-09T18:58:56.509Z,5.18
2022-08-09T19:01:24.049Z,5.30
2022-08-09T19:04:01.171Z,4.80
2022-08-09T19:06:34.139Z,5.60
2022-08-09T19:09:02.457Z,5.50
2022-08-09T19:11:35.190Z,4.85
2022-08-09T19:14:06.155Z,5.45
2022-08-09T19:16:36.720Z,5.22
2022-08-09T19:19:19.306Z,5.53
2022-08-09T19:22:04.675Z,5.68
2022-08-09T19:25:07.390Z,5.15
2022-08-09T19:27:21.037Z,5.65
2022-08-09T19:30:21.359Z,5.40
2022-08-09T19:32:36.732Z,5.37
2022-08-09T19:35:04.377Z,5.38
2022-08-09T19:37:41.151Z,5.30
2022-08-09T19:40:19.559Z,5.15
2022-08-09T19:42:47.414Z,5.72
2022-08-09T19:45:16.625Z,5.67
2022-08-09T19:47:44.514Z,5.40
2022-08-09T19:50:48.831Z,6.40
2022-08-09T19:52:59.659Z,6.18
2022-08-09T19:55:52.982Z,6.07
2022-08-09T19:58:18.006Z,5.90
2022-08-09T20:00:57.632Z,6.32
2022-08-09T20:04:18.061Z,6.30
2022-08-09T20:06:23.726Z,6.68
2022-08-09T20:08:57.481Z,6.40
2022-08-09T20:11:26.569Z,6.83
2022-08-09T20:13:55.034Z,7.03
2022-08-09T20:16:35.314Z,6.63
2022-08-09T20:19:47.567Z,6.97
2022-08-09T20:21:56.076Z,7.13
2022-08-09T20:24:29.501Z,7.00
2022-08-09T20:27:05.505Z,6.65
2022-08-09T20:29:37.905Z,6.47
2022-08-09T20:32:30.923Z,7.10
2022-08-09T20:34:59.047Z,8.45
2022-08-09T20:37:25.846Z,8.40
2022-08-09T20:40:19.272Z,7.88
2022-08-09T20:43:17.175Z,8.55
2022-08-09T20:46:01.766Z,7.47
2022-08-09T20:48:30.907Z,7.95
2022-08-09T20:50:59.539Z,7.90
2022-08-09T20:53:35.757Z,7.13
2022-08-09T20:56:17.383Z,7.03
2022-08-09T20:58:54.170Z,7.93
2022-08-09T21:01:34.749Z,9.57
2022-08-09T21:05:52.812Z,8.33
2022-08-09T21:06:58.997Z,8.18
2022-08-09T21:09:45.904Z,8.68
2022-08-09T21:12:23.084Z,10.15
2022-08-09T21:14:50.299Z,9.88
2022-08-09T21:18:23.134Z,9.30
2022-08-09T21:20:25.320Z,9.90
2022-08-09T21:22:54.566Z,10.73
2022-08-09T21:25:44.372Z,10.18
2022-08-09T21:28:34.931Z,10.23
2022-08-09T21:31:16.597Z,9.43
2022-08-09T21:33:51.455Z,8.98
2022-08-09T21:36:28.523Z,9.52
2022-08-09T21:38:59.899Z,9.63
2022-08-09T21:42:05.006Z,8.63
2022-08-09T21:44:32.938Z,9.27
2022-08-09T21:47:05.224Z,9.27
2022-08-09T21:49:39.911Z,9.05
2022-08-09T21:52:17.869Z,9.48
2022-08-09T21:55:02.945Z,9.88
2022-08-09T21:57:38.356Z,10.33
2022-08-09T22:00:33.044Z,9.73
2022-08-09T22:03:02.376Z,9.82
2022-08-09T22:05:35.601Z,10.02
2022-08-09T22:08:05.410Z,9.73
2022-08-09T22:10:32.208Z,9.40
2022-08-09T22:13:00.202Z,9.73
2022-08-09T22:15:36.931Z,9.45
2022-08-09T22:18:04.097Z,9.10
2022-08-09T22:20:31.630Z,9.05
2022-08-09T22:22:58.707Z,9.13
2022-08-09T22:26:08.248Z,9.10
2022-08-09T22:28:12.546Z,9.55
2022-08-09T22:30:48.520Z,9.27
2022-08-09T22:33:17.233Z,8.93
2022-08-09T22:36:02.469Z,9.20
2022-08-09T22:38:30.349Z,8.98
2022-08-09T22:40:58.604Z,8.75
2022-08-09T22:44:02.426Z,9.10
2022-08-09T22:48:11.474Z,8.98
2022-08-09T22:49:09.758Z,8.60
2022-08-09T22:51:38.283Z,8.52
2022-08-09T22:54:07.999Z,8.13
2022-08-09T22:56:38.149Z,8.38
2022-08-09T22:59:55.181Z,9.13
2022-08-09T23:01:56.345Z,10.03
2022-08-09T23:04:25.582Z,9.00
2022-08-09T23:07:13.945Z,9.65
2022-08-09T23:09:43.208Z,8.43
2022-08-09T23:12:10.109Z,9.13
2022-08-09T23:14:42.115Z,9.00
2022-08-09T23:17:10.567Z,9.32
2022-08-09T23:20:06.225Z,9.57
2022-08-09T23:22:24.369Z,9.40
2022-08-09T23:24:51.228Z,10.15
2022-08-09T23:27:18.130Z,9.47
2022-08-09T23:29:44.987Z,11.18
2022-08-09T23:32:11.910Z,12.38
2022-08-09T23:34:38.788Z,12.20
2022-08-09T23:37:05.670Z,12.27
2022-08-09T23:39:32.742Z,11.70
2022-08-09T23:41:59.830Z,11.60
2022-08-09T23:44:26.729Z,11.23
2022-08-09T23:46:57.621Z,10.65
2022-08-09T23:49:25.618Z,11.07
2022-08-09T23:51:53.528Z,10.80
2022-08-09T23:54:21.727Z,10.70
2022-08-09T23:56:56.059Z,10.20
2022-08-09T23:59:23.466Z,10.80
